Terminal Aerodrome Forecast
Issued by NWS Caribou, ME

Home | Current Version | Previous Version | Text Only | Print | Product List | Glossary On
Versions: 1 2 3 4 5 6 7 8 9 10 11 12 13 14 15 16
000
FTUS41 KCAR 270540
TAFCAR
TAF
KCAR 270540Z 2706/2806 33006KT P6SM SCT100 BKN180
     FM271100 26005KT P6SM SCT120
     FM271500 27010G18KT P6SM SCT045
     FM280100 27006KT P6SM FEW120=

USA.gov is the U.S. government's official web portal to all federal, state and local government web resources and services.